createdAt,value
2022-10-18T00:01:35.291Z,101812.97
2022-10-18T00:04:01.678Z,101814.06
2022-10-18T00:06:28.050Z,101816.84
2022-10-18T00:08:54.541Z,101811.25
2022-10-18T00:11:20.927Z,101815.13
2022-10-18T00:13:47.379Z,101809.56
2022-10-18T00:16:16.508Z,101807.03
2022-10-18T00:18:43.829Z,101802.31
2022-10-18T00:21:22.017Z,101811.25
2022-10-18T00:23:50.107Z,101810.19
2022-10-18T00:26:24.640Z,101808.84
2022-10-18T00:28:56.889Z,101812.25
2022-10-18T00:31:29.106Z,101812.00
2022-10-18T00:34:04.469Z,101810.34
2022-10-18T00:36:32.772Z,101806.69
2022-10-18T00:38:59.168Z,101803.91
2022-10-18T00:41:28.832Z,101812.25
2022-10-18T00:43:55.250Z,101805.84
2022-10-18T00:46:22.610Z,101809.47
2022-10-18T00:48:49.911Z,101803.06
2022-10-18T00:51:18.439Z,101791.91
2022-10-18T00:53:45.587Z,101790.19
2022-10-18T00:56:13.314Z,101782.91
2022-10-18T00:58:40.115Z,101780.41
2022-10-18T01:01:06.524Z,101777.84
2022-10-18T01:03:33.009Z,101775.03
2022-10-18T01:05:59.448Z,101780.03
2022-10-18T01:09:14.673Z,101771.03
2022-10-18T01:12:06.121Z,101774.94
2022-10-18T01:14:49.760Z,101774.31
2022-10-18T01:17:25.382Z,101777.09
2022-10-18T01:20:16.195Z,101780.97
2022-10-18T01:22:49.636Z,101777.56
2022-10-18T01:25:53.463Z,101776.34
2022-10-18T01:28:41.054Z,101783.00
2022-10-18T01:31:26.296Z,101777.44
2022-10-18T01:33:59.292Z,101778.91
2022-10-18T01:36:27.961Z,101781.44
2022-10-18T01:38:59.082Z,101774.78
2022-10-18T01:41:27.558Z,101784.84
2022-10-18T01:43:59.599Z,101775.38
2022-10-18T01:46:27.933Z,101767.66
2022-10-18T01:48:56.122Z,101762.94
2022-10-18T01:51:27.744Z,101760.53
2022-10-18T01:53:54.382Z,101757.75
2022-10-18T01:56:28.721Z,101753.84
2022-10-18T01:59:13.841Z,101757.97
2022-10-18T02:01:53.583Z,101768.25
2022-10-18T02:04:30.036Z,101763.16
2022-10-18T02:07:06.193Z,101768.75
2022-10-18T02:09:41.975Z,101766.44
2022-10-18T02:12:12.147Z,101768.59
2022-10-18T02:14:41.314Z,101765.81
2022-10-18T02:17:11.612Z,101767.50
2022-10-18T02:19:42.904Z,101763.88
2022-10-18T02:22:12.033Z,101756.63
2022-10-18T02:24:44.607Z,101751.88
2022-10-18T02:27:11.342Z,101750.44
2022-10-18T02:29:39.307Z,101750.69
2022-10-18T02:32:16.282Z,101749.84
2022-10-18T02:35:02.904Z,101754.19
2022-10-18T02:37:35.110Z,101749.69
2022-10-18T02:40:02.798Z,101755.50
2022-10-18T02:42:37.564Z,101759.13
2022-10-18T02:45:06.085Z,101746.91
2022-10-18T02:47:32.754Z,101739.63
2022-10-18T02:49:59.306Z,101732.38
2022-10-18T02:52:25.765Z,101740.97
2022-10-18T02:54:52.152Z,101744.34
2022-10-18T02:57:18.595Z,101750.19
2022-10-18T02:59:45.035Z,101752.09
2022-10-18T03:02:11.418Z,101754.03
2022-10-18T03:04:37.830Z,101759.38
2022-10-18T03:07:04.234Z,101752.09
2022-10-18T03:09:30.748Z,101765.81
2022-10-18T03:11:57.406Z,101760.25
2022-10-18T03:14:23.815Z,101759.38
2022-10-18T03:16:50.203Z,101760.25
2022-10-18T03:19:16.707Z,101761.31
2022-10-18T03:21:43.101Z,101764.09
2022-10-18T03:24:09.478Z,101766.03
2022-10-18T03:26:35.906Z,101764.94
2022-10-18T03:29:02.353Z,101768.59
2022-10-18T03:31:28.817Z,101766.63
2022-10-18T03:33:55.212Z,101770.53
2022-10-18T03:36:21.650Z,101763.25
2022-10-18T03:38:48.098Z,101768.81
2022-10-18T03:41:14.665Z,101766.88
2022-10-18T03:43:41.053Z,101770.53
2022-10-18T03:46:07.797Z,101766.88
2022-10-18T03:48:34.255Z,101767.75
2022-10-18T03:51:00.662Z,101768.81
2022-10-18T03:53:27.115Z,101762.41
2022-10-18T03:55:55.271Z,101762.16
2022-10-18T03:58:22.414Z,101769.66
2022-10-18T04:00:50.574Z,101778.88
2022-10-18T04:03:17.065Z,101774.59
2022-10-18T04:05:44.061Z,101767.06
2022-10-18T04:08:10.429Z,101777.78
2022-10-18T04:10:38.694Z,101783.97
2022-10-18T04:13:06.396Z,101784.56
2022-10-18T04:15:32.892Z,101780.94
2022-10-18T04:17:59.660Z,101781.19
2022-10-18T04:20:26.829Z,101773.69
2022-10-18T04:22:55.125Z,101776.22
2022-10-18T04:25:22.196Z,101766.78
2022-10-18T04:27:48.629Z,101760.59
2022-10-18T04:30:15.548Z,101772.56
2022-10-18T04:32:41.986Z,101783.97
2022-10-18T04:35:10.113Z,101784.19
2022-10-18T04:37:36.534Z,101781.66
2022-10-18T04:40:03.498Z,101778.22
2022-10-18T04:42:29.965Z,101783.78
2022-10-18T04:44:56.334Z,101787.91
2022-10-18T04:47:22.717Z,101789.84
2022-10-18T04:49:49.314Z,101790.31
2022-10-18T04:52:15.702Z,101790.31
2022-10-18T04:54:42.357Z,101791.41
2022-10-18T04:57:08.805Z,101787.75
2022-10-18T04:59:35.178Z,101789.69
2022-10-18T05:02:01.635Z,101784.38
2022-10-18T05:04:28.065Z,101788.50
2022-10-18T05:06:54.451Z,101794.50
2022-10-18T05:09:24.470Z,101801.63
2022-10-18T05:11:51.362Z,101782.63
2022-10-18T05:14:17.764Z,101787.22
2022-10-18T05:16:44.170Z,101785.97
2022-10-18T05:19:10.938Z,101791.78
2022-10-18T05:21:37.972Z,101787.75
2022-10-18T05:24:04.581Z,101791.50
2022-10-18T05:26:31.005Z,101800.31
2022-10-18T05:28:57.429Z,101799.94
2022-10-18T05:31:23.837Z,101808.50
2022-10-18T05:33:50.234Z,101798.44
2022-10-18T05:36:16.683Z,101804.88
2022-10-18T05:38:43.965Z,101809.34
2022-10-18T05:41:10.497Z,101804.00
2022-10-18T05:43:37.196Z,101818.56
2022-10-18T05:46:06.477Z,101808.50
2022-10-18T05:48:35.228Z,101813.59
2022-10-18T05:51:01.876Z,101813.59
2022-10-18T05:53:36.828Z,101819.16
2022-10-18T05:56:04.737Z,101814.44
2022-10-18T05:58:31.142Z,101811.91
2022-10-18T06:01:04.875Z,101821.34
2022-10-18T06:03:31.828Z,101822.41
2022-10-18T06:06:03.128Z,101822.19
2022-10-18T06:08:29.541Z,101830.28
2022-10-18T06:10:56.476Z,101833.72
2022-10-18T06:13:23.028Z,101835.41
2022-10-18T06:15:49.653Z,101836.50
2022-10-18T06:18:16.131Z,101839.28
2022-10-18T06:20:42.521Z,101846.53
2022-10-18T06:23:08.940Z,101849.09
2022-10-18T06:25:35.429Z,101851.00
2022-10-18T06:28:06.009Z,101849.94
2022-10-18T06:30:34.852Z,101850.78
2022-10-18T06:33:01.322Z,101854.19
2022-10-18T06:35:30.554Z,101853.31
2022-10-18T06:37:59.305Z,101862.31
2022-10-18T06:40:25.775Z,101848.59
2022-10-18T06:43:00.113Z,101856.75
2022-10-18T06:45:31.056Z,101856.53
2022-10-18T06:47:58.526Z,101862.91
2022-10-18T06:50:27.395Z,101859.06
2022-10-18T06:52:58.631Z,101863.53
2022-10-18T06:55:25.839Z,101862.69
2022-10-18T06:57:55.674Z,101863.53
2022-10-18T07:00:22.649Z,101873.34
2022-10-18T07:02:56.972Z,101861.34
2022-10-18T07:05:24.910Z,101863.91
2022-10-18T07:07:54.259Z,101872.03
2022-10-18T07:10:23.530Z,101869.03
2022-10-18T07:12:51.538Z,101874.59
2022-10-18T07:15:18.096Z,101866.88
2022-10-18T07:17:47.821Z,101874.97
2022-10-18T07:20:16.281Z,101875.81
2022-10-18T07:22:42.686Z,101877.28
2022-10-18T07:25:09.346Z,101871.09
2022-10-18T07:27:39.570Z,101887.34
2022-10-18T07:30:08.518Z,101879.59
2022-10-18T07:32:39.501Z,101885.78
2022-10-18T07:35:06.435Z,101879.75
2022-10-18T07:37:33.106Z,101886.56
2022-10-18T07:39:59.641Z,101884.16
2022-10-18T07:42:26.019Z,101888.38
2022-10-18T07:44:52.406Z,101891.56
2022-10-18T07:47:18.883Z,101893.94
2022-10-18T07:49:45.256Z,101903.25
2022-10-18T07:52:11.693Z,101906.69
2022-10-18T07:54:38.241Z,101915.03
2022-10-18T07:57:05.109Z,101928.97
2022-10-18T07:59:31.533Z,101925.06
2022-10-18T08:01:58.017Z,101929.56
2022-10-18T08:04:24.474Z,101931.88
2022-10-18T08:06:50.908Z,101929.72
2022-10-18T08:09:17.335Z,101931.41
2022-10-18T08:11:44.336Z,101931.56
2022-10-18T08:14:10.715Z,101926.34
2022-10-18T08:16:37.115Z,101924.44
2022-10-18T08:19:04.275Z,101923.94
2022-10-18T08:21:30.685Z,101937.28
2022-10-18T08:23:57.080Z,101927.38
2022-10-18T08:26:23.969Z,101930.75
2022-10-18T08:29:03.558Z,101936.09
2022-10-18T08:31:36.568Z,101935.84
2022-10-18T08:34:02.982Z,101937.94
2022-10-18T08:36:29.435Z,101934.44
2022-10-18T08:38:55.795Z,101948.50
2022-10-18T08:41:37.513Z,101950.34
2022-10-18T08:44:19.230Z,101951.31
2022-10-18T08:46:48.997Z,101941.78
2022-10-18T08:49:26.532Z,101958.41
2022-10-18T08:51:53.775Z,101951.03
2022-10-18T08:54:34.862Z,101948.75
2022-10-18T08:57:04.320Z,101950.81
2022-10-18T08:59:39.347Z,101946.25
2022-10-18T09:02:12.932Z,101951.09
2022-10-18T09:05:22.622Z,101954.25
2022-10-18T09:08:13.741Z,101958.50
2022-10-18T09:11:08.124Z,101959.25
2022-10-18T09:14:13.904Z,101953.78
2022-10-18T09:16:40.541Z,101959.75
2022-10-18T09:19:39.349Z,101952.44
2022-10-18T09:22:13.931Z,101963.97
2022-10-18T09:24:45.941Z,101962.28
2022-10-18T09:27:16.987Z,101970.41
2022-10-18T09:29:55.496Z,101975.00
2022-10-18T09:32:45.522Z,101979.28
2022-10-18T09:35:19.596Z,101984.97
2022-10-18T09:37:46.670Z,101976.84
2022-10-18T09:40:24.269Z,101978.88
2022-10-18T09:42:57.204Z,101977.09
2022-10-18T09:45:29.135Z,101977.81
2022-10-18T09:48:05.579Z,101981.09
2022-10-18T09:51:04.878Z,101984.97
2022-10-18T09:53:38.548Z,101986.56
2022-10-18T09:56:09.353Z,101980.72
2022-10-18T09:58:47.138Z,101980.34
2022-10-18T10:01:17.901Z,101978.75
2022-10-18T10:03:44.587Z,101978.03
2022-10-18T10:06:16.586Z,101993.06
2022-10-18T10:08:47.611Z,101982.81
2022-10-18T10:11:31.875Z,101983.53
2022-10-18T10:14:08.389Z,101978.81
2022-10-18T10:16:50.410Z,101973.06
2022-10-18T10:19:22.644Z,101965.09
2022-10-18T10:21:52.114Z,101963.41
2022-10-18T10:24:28.833Z,101960.31
2022-10-18T10:27:03.037Z,101962.22
2022-10-18T10:29:47.887Z,101962.81
2022-10-18T10:32:17.079Z,101971.81
2022-10-18T10:34:44.873Z,101981.56
2022-10-18T10:37:23.585Z,101985.28
2022-10-18T10:40:20.291Z,101991.97
2022-10-18T10:43:33.062Z,101977.94
2022-10-18T10:46:06.416Z,101974.75
2022-10-18T10:48:40.461Z,101982.56
2022-10-18T10:51:11.073Z,101979.66
2022-10-18T10:53:40.265Z,101978.63
2022-10-18T10:56:16.177Z,101975.16
2022-10-18T10:58:42.959Z,101981.91
2022-10-18T11:01:30.896Z,101984.16
2022-10-18T11:04:09.428Z,101988.06
2022-10-18T11:06:51.107Z,101990.34
2022-10-18T11:09:44.097Z,101991.00
2022-10-18T11:12:25.445Z,101986.06
2022-10-18T11:15:10.567Z,101982.72
2022-10-18T11:18:16.925Z,101990.97
2022-10-18T11:20:49.391Z,101975.38
2022-10-18T11:23:17.378Z,101967.16
2022-10-18T11:26:08.573Z,101969.84
2022-10-18T11:28:56.529Z,101978.75
2022-10-18T11:32:11.986Z,101974.53
2022-10-18T11:35:12.848Z,101973.16
2022-10-18T11:37:48.157Z,101979.09
2022-10-18T11:40:26.396Z,101982.91
2022-10-18T11:43:16.494Z,101971.59
2022-10-18T11:45:52.714Z,101974.31
2022-10-18T11:48:55.726Z,101970.19
2022-10-18T11:51:56.065Z,101966.75
2022-10-18T11:54:37.664Z,101968.44
2022-10-18T11:57:32.045Z,101971.59
2022-10-18T12:00:49.452Z,101978.69
2022-10-18T12:03:50.467Z,101965.34
2022-10-18T12:06:22.065Z,101956.94
2022-10-18T12:08:56.682Z,101956.09
2022-10-18T12:11:55.973Z,101958.13
2022-10-18T12:14:33.324Z,101944.44
2022-10-18T12:17:39.734Z,101951.44
2022-10-18T12:19:55.764Z,101957.75
2022-10-18T12:22:41.585Z,101960.41
2022-10-18T12:25:13.869Z,101966.97
2022-10-18T12:27:48.476Z,101969.00
2022-10-18T12:30:30.226Z,101972.81
2022-10-18T12:33:28.402Z,101964.94
2022-10-18T12:36:15.428Z,101962.03
2022-10-18T12:38:45.700Z,101955.28
2022-10-18T12:41:21.296Z,101964.78
2022-10-18T12:44:18.769Z,101966.13
2022-10-18T12:46:53.514Z,101964.16
2022-10-18T12:49:34.248Z,101959.78
2022-10-18T12:52:05.803Z,101967.16
2022-10-18T12:54:38.243Z,101973.34
2022-10-18T12:57:17.830Z,101962.06
2022-10-18T12:59:44.318Z,101965.97
2022-10-18T13:02:20.926Z,101951.34
2022-10-18T13:04:48.752Z,101959.75
2022-10-18T13:07:21.599Z,101967.28
2022-10-18T13:10:09.482Z,101958.66
2022-10-18T13:12:49.488Z,101956.72
2022-10-18T13:15:40.713Z,101954.59
2022-10-18T13:18:24.937Z,101959.00
2022-10-18T13:21:10.219Z,101962.41
2022-10-18T13:23:57.815Z,101953.91
2022-10-18T13:26:42.057Z,101954.38
2022-10-18T13:29:20.615Z,101943.94
2022-10-18T13:32:27.568Z,101938.75
2022-10-18T13:34:54.361Z,101938.28
2022-10-18T13:37:24.680Z,101936.59
2022-10-18T13:40:12.750Z,101933.72
2022-10-18T13:42:39.137Z,101942.91
2022-10-18T13:45:40.731Z,101940.81
2022-10-18T13:48:44.953Z,101945.91
2022-10-18T13:51:36.045Z,101951.28
2022-10-18T13:54:15.270Z,101950.78
2022-10-18T13:57:07.851Z,101947.19
2022-10-18T13:59:55.643Z,101936.81
2022-10-18T14:03:00.868Z,101940.75
2022-10-18T14:05:58.155Z,101952.31
2022-10-18T14:08:28.826Z,101952.28
2022-10-18T14:11:18.552Z,101954.25
2022-10-18T14:13:54.846Z,101954.44
2022-10-18T14:16:35.209Z,101944.22
2022-10-18T14:19:13.532Z,101957.84
2022-10-18T14:21:49.244Z,101955.19
2022-10-18T14:24:21.217Z,101957.88
2022-10-18T14:26:47.796Z,101950.97
2022-10-18T14:29:20.272Z,101954.44
2022-10-18T14:31:54.795Z,101963.09
2022-10-18T14:34:21.846Z,101963.19
2022-10-18T14:36:49.484Z,101961.97
2022-10-18T14:39:26.601Z,101965.22
2022-10-18T14:41:55.169Z,101955.19
2022-10-18T14:44:27.977Z,101961.25
2022-10-18T14:47:02.592Z,101963.91
2022-10-18T14:49:29.956Z,101958.88
2022-10-18T14:51:59.016Z,101965.69
2022-10-18T14:54:31.958Z,101958.66
2022-10-18T14:57:00.639Z,101962.88
2022-10-18T14:59:29.525Z,101954.16
2022-10-18T15:02:01.973Z,101957.25
2022-10-18T15:04:35.502Z,101964.09
2022-10-18T15:07:05.451Z,101964.66
2022-10-18T15:09:34.152Z,101955.69
2022-10-18T15:12:03.374Z,101949.47
2022-10-18T15:14:30.345Z,101951.16
2022-10-18T15:17:03.293Z,101957.91
2022-10-18T15:19:35.774Z,101948.66
2022-10-18T15:25:06.121Z,101946.66
2022-10-18T15:27:36.517Z,101954.53
2022-10-18T15:30:21.744Z,101950.31
2022-10-18T15:33:02.575Z,101944.97
2022-10-18T15:35:31.605Z,101944.31
2022-10-18T15:38:03.466Z,101944.31
2022-10-18T15:40:34.003Z,101945.97
2022-10-18T15:43:04.080Z,101951.00
2022-10-18T15:45:34.366Z,101948.69
2022-10-18T15:48:00.797Z,101946.38
2022-10-18T15:50:48.980Z,101943.72
2022-10-18T15:53:21.647Z,101946.94
2022-10-18T15:56:00.651Z,101946.22
2022-10-18T15:58:37.620Z,101949.03
2022-10-18T16:01:04.559Z,101953.88
2022-10-18T16:03:35.281Z,101952.84
2022-10-18T16:06:07.819Z,101955.69
2022-10-18T16:08:40.924Z,101963.03
2022-10-18T16:11:26.265Z,101956.38
2022-10-18T16:13:56.444Z,101961.13
2022-10-18T16:16:28.951Z,101963.72
2022-10-18T16:18:56.359Z,101959.47
2022-10-18T16:21:36.093Z,101965.09
2022-10-18T16:24:02.865Z,101952.75
2022-10-18T16:26:29.607Z,101962.53
2022-10-18T16:28:57.940Z,101976.25
2022-10-18T16:31:29.887Z,101974.28
2022-10-18T16:33:57.579Z,101973.47
2022-10-18T16:36:26.820Z,101980.81
2022-10-18T16:38:54.985Z,101980.84
2022-10-18T16:41:22.015Z,101987.94
2022-10-18T16:43:50.037Z,101995.00
2022-10-18T16:46:19.043Z,102003.28
2022-10-18T16:48:46.852Z,102007.06
2022-10-18T16:51:13.612Z,102008.06
2022-10-18T16:53:40.357Z,102009.00
2022-10-18T16:56:13.691Z,102004.19
2022-10-18T16:58:40.183Z,102007.91
2022-10-18T17:01:08.877Z,102023.72
2022-10-18T17:03:35.591Z,102016.28
2022-10-18T17:06:02.034Z,102027.34
2022-10-18T17:08:28.745Z,102028.94
2022-10-18T17:10:57.274Z,102027.72
2022-10-18T17:13:25.710Z,102025.63
2022-10-18T17:15:53.626Z,102034.50
2022-10-18T17:18:22.929Z,102039.72
2022-10-18T17:20:49.824Z,102037.91
2022-10-18T17:23:16.324Z,102036.69
2022-10-18T17:25:58.938Z,102039.94
2022-10-18T17:28:33.611Z,102045.88
2022-10-18T17:31:00.153Z,102044.66
2022-10-18T17:33:26.605Z,102047.09
2022-10-18T17:35:52.988Z,102055.31
2022-10-18T17:38:19.339Z,102053.72
2022-10-18T17:40:45.713Z,102053.81
2022-10-18T17:43:13.589Z,102051.69
2022-10-18T17:45:51.017Z,102064.41
2022-10-18T17:48:17.803Z,102062.59
2022-10-18T17:50:44.193Z,102059.41
2022-10-18T17:53:11.969Z,102058.41
2022-10-18T17:55:39.010Z,102064.94
2022-10-18T17:58:05.541Z,102063.09
2022-10-18T18:00:32.122Z,102061.22
2022-10-18T18:03:01.735Z,102065.19
2022-10-18T18:05:32.901Z,102064.91
2022-10-18T18:08:03.566Z,102071.47
2022-10-18T18:10:32.947Z,102068.38
2022-10-18T18:12:59.580Z,102069.78
2022-10-18T18:15:25.991Z,102072.19
2022-10-18T18:17:56.977Z,102068.63
2022-10-18T18:20:24.536Z,102077.53
2022-10-18T18:22:51.783Z,102073.31
2022-10-18T18:25:18.385Z,102067.41
2022-10-18T18:27:44.801Z,102076.91
2022-10-18T18:30:11.481Z,102071.00
2022-10-18T18:32:37.909Z,102076.22
2022-10-18T18:35:04.583Z,102078.81
2022-10-18T18:37:31.035Z,102087.22
2022-10-18T18:39:57.439Z,102079.75
2022-10-18T18:42:23.945Z,102077.88
2022-10-18T18:44:50.338Z,102086.03
2022-10-18T18:49:48.091Z,102085.25
2022-10-18T18:52:14.554Z,102087.84
2022-10-18T18:54:40.963Z,102084.88
2022-10-18T18:57:07.365Z,102084.06
2022-10-18T18:59:34.066Z,102086.84
2022-10-18T19:02:00.496Z,102090.13
2022-10-18T19:04:28.932Z,102094.41
2022-10-18T19:06:55.334Z,102089.31
2022-10-18T19:09:22.763Z,102076.31
2022-10-18T19:11:52.857Z,102083.56
2022-10-18T19:14:19.806Z,102084.00
2022-10-18T19:16:51.553Z,102083.41
2022-10-18T19:19:20.616Z,102081.88
2022-10-18T19:21:49.554Z,102087.88
2022-10-18T19:24:15.989Z,102085.31
2022-10-18T19:26:48.595Z,102085.56
2022-10-18T19:29:18.863Z,102082.56
2022-10-18T19:31:45.710Z,102084.94
2022-10-18T19:34:14.220Z,102084.50
2022-10-18T19:36:43.152Z,102087.94
2022-10-18T19:39:14.730Z,102085.19
2022-10-18T19:41:41.157Z,102078.13
2022-10-18T19:44:07.591Z,102084.34
2022-10-18T19:46:33.977Z,102086.69
2022-10-18T19:49:00.371Z,102095.66
2022-10-18T19:51:28.326Z,102084.13
2022-10-18T19:53:56.699Z,102092.22
2022-10-18T19:56:25.443Z,102091.81
2022-10-18T19:58:51.984Z,102093.97
2022-10-18T20:01:19.097Z,102102.47
2022-10-18T20:03:46.432Z,102100.56
2022-10-18T20:06:13.093Z,102101.00
2022-10-18T20:08:39.737Z,102098.88
2022-10-18T20:11:11.743Z,102103.75
2022-10-18T20:13:38.309Z,102105.47
2022-10-18T20:16:07.701Z,102114.22
2022-10-18T20:18:34.815Z,102108.44
2022-10-18T20:21:05.915Z,102107.16
2022-10-18T20:23:32.639Z,102102.47
2022-10-18T20:26:04.569Z,102099.28
2022-10-18T20:28:31.207Z,102101.19
2022-10-18T20:31:07.979Z,102100.56
2022-10-18T20:33:35.639Z,102102.91
2022-10-18T20:36:08.522Z,102108.44
2022-10-18T20:38:37.250Z,102113.13
2022-10-18T20:41:27.504Z,102106.94
2022-10-18T20:43:57.668Z,102112.47
2022-10-18T20:46:25.066Z,102118.03
2022-10-18T20:48:52.349Z,102119.06
2022-10-18T20:51:18.876Z,102121.03
2022-10-18T20:53:45.651Z,102116.09
2022-10-18T20:56:20.646Z,102116.31
2022-10-18T20:58:49.467Z,102116.09
2022-10-18T21:01:27.279Z,102120.78
2022-10-18T21:03:55.501Z,102118.03
2022-10-18T21:06:27.394Z,102125.09
2022-10-18T21:09:15.587Z,102119.75
2022-10-18T21:11:44.853Z,102117.81
2022-10-18T21:14:13.822Z,102120.38
2022-10-18T21:16:40.377Z,102118.25
2022-10-18T21:19:17.223Z,102116.09
2022-10-18T21:21:46.010Z,102113.16
2022-10-18T21:24:13.982Z,102115.69
2022-10-18T21:26:40.461Z,102118.06
2022-10-18T21:29:07.433Z,102123.38
2022-10-18T21:31:36.233Z,102111.03
2022-10-18T21:34:15.330Z,102125.53
2022-10-18T21:36:43.936Z,102117.19
2022-10-18T21:39:16.084Z,102122.31
2022-10-18T21:41:42.944Z,102118.50
2022-10-18T21:44:11.152Z,102115.28
2022-10-18T21:46:39.366Z,102110.59
2022-10-18T21:49:06.830Z,102102.09
2022-10-18T21:51:33.244Z,102106.78
2022-10-18T21:53:59.731Z,102114.66
2022-10-18T21:56:31.489Z,102103.34
2022-10-18T21:58:58.513Z,102106.75
2022-10-18T22:01:27.903Z,102106.53
2022-10-18T22:03:56.163Z,102101.22
2022-10-18T22:06:23.104Z,102096.53
2022-10-18T22:08:52.114Z,102103.34
2022-10-18T22:11:20.704Z,102108.69
2022-10-18T22:13:47.247Z,102092.91
2022-10-18T22:16:15.341Z,102098.44
2022-10-18T22:18:43.230Z,102090.97
2022-10-18T22:21:11.597Z,102091.84
2022-10-18T22:23:41.770Z,102085.63
2022-10-18T22:26:15.245Z,102090.13
2022-10-18T22:28:43.608Z,102084.56
2022-10-18T22:31:17.907Z,102080.31
2022-10-18T22:33:44.937Z,102078.16
2022-10-18T22:36:12.093Z,102083.72
2022-10-18T22:38:39.049Z,102080.72
2022-10-18T22:41:06.934Z,102086.28
2022-10-18T22:43:33.855Z,102084.56
2022-10-18T22:46:02.431Z,102083.28
2022-10-18T22:48:29.393Z,102080.31
2022-10-18T22:50:55.824Z,102082.00
2022-10-18T22:53:22.392Z,102082.88
2022-10-18T22:55:49.528Z,102083.69
2022-10-18T22:58:16.008Z,102078.16
2022-10-18T23:00:42.404Z,102082.63
2022-10-18T23:03:08.966Z,102088.41
2022-10-18T23:05:39.784Z,102082.88
2022-10-18T23:08:07.724Z,102076.91
2022-10-18T23:10:36.640Z,102076.47
2022-10-18T23:13:03.729Z,102067.94
2022-10-18T23:15:30.839Z,102079.22
2022-10-18T23:17:58.500Z,102078.19
2022-10-18T23:20:26.292Z,102073.06
2022-10-18T23:22:53.083Z,102081.16
2022-10-18T23:25:20.226Z,102069.44
2022-10-18T23:27:46.740Z,102074.31
2022-10-18T23:30:13.297Z,102075.19
2022-10-18T23:32:39.711Z,102078.16
2022-10-18T23:35:07.272Z,102075.38
2022-10-18T23:37:33.927Z,102085.66
2022-10-18T23:40:00.568Z,102078.16
2022-10-18T23:42:27.006Z,102085.41
2022-10-18T23:44:53.444Z,102079.22
2022-10-18T23:47:19.797Z,102079.44
2022-10-18T23:49:46.219Z,102083.28
2022-10-18T23:52:12.661Z,102078.78
2022-10-18T23:54:39.108Z,102081.56
2022-10-18T23:57:05.620Z,102081.34
2022-10-18T23:59:32.060Z,102085.63
